sensor_id;sensor_type;location;lat;lon;timestamp;temperature;humidity
22167;DHT22;11249;52.468;13.776;2022-07-21T00:00:26;24.50;93.40
22167;DHT22;11249;52.468;13.776;2022-07-21T00:02:54;24.50;93.50
22167;DHT22;11249;52.468;13.776;2022-07-21T00:05:27;24.50;93.50
22167;DHT22;11249;52.468;13.776;2022-07-21T00:08:00;24.50;93.40
22167;DHT22;11249;52.468;13.776;2022-07-21T00:10:27;24.50;93.50
22167;DHT22;11249;52.468;13.776;2022-07-21T00:12:54;24.50;93.60
22167;DHT22;11249;52.468;13.776;2022-07-21T00:15:34;24.40;93.70
22167;DHT22;11249;52.468;13.776;2022-07-21T00:18:01;24.40;93.80
22167;DHT22;11249;52.468;13.776;2022-07-21T00:20:35;24.30;93.80
22167;DHT22;11249;52.468;13.776;2022-07-21T00:23:08;24.20;93.90
22167;DHT22;11249;52.468;13.776;2022-07-21T00:25:35;24.20;93.90
22167;DHT22;11249;52.468;13.776;2022-07-21T00:28:03;24.20;94.00
22167;DHT22;11249;52.468;13.776;2022-07-21T00:30:36;24.10;94.00
22167;DHT22;11249;52.468;13.776;2022-07-21T00:33:03;24.10;94.30
22167;DHT22;11249;52.468;13.776;2022-07-21T00:35:36;24.00;94.20
22167;DHT22;11249;52.468;13.776;2022-07-21T00:38:03;24.00;94.30
22167;DHT22;11249;52.468;13.776;2022-07-21T00:40:30;24.00;94.30
22167;DHT22;11249;52.468;13.776;2022-07-21T00:43:03;24.00;94.40
22167;DHT22;11249;52.468;13.776;2022-07-21T00:45:37;23.90;94.40
22167;DHT22;11249;52.468;13.776;2022-07-21T00:48:10;24.00;94.40
22167;DHT22;11249;52.468;13.776;2022-07-21T00:50:37;23.90;94.40
22167;DHT22;11249;52.468;13.776;2022-07-21T00:53:04;24.00;94.40
22167;DHT22;11249;52.468;13.776;2022-07-21T00:55:37;24.00;94.40
22167;DHT22;11249;52.468;13.776;2022-07-21T00:58:10;23.90;94.40
22167;DHT22;11249;52.468;13.776;2022-07-21T01:00:37;23.90;94.30
22167;DHT22;11249;52.468;13.776;2022-07-21T01:03:10;23.80;94.50
22167;DHT22;11249;52.468;13.776;2022-07-21T01:05:37;23.90;94.50
22167;DHT22;11249;52.468;13.776;2022-07-21T01:08:10;23.80;94.50
22167;DHT22;11249;52.468;13.776;2022-07-21T01:10:44;23.80;94.60
22167;DHT22;11249;52.468;13.776;2022-07-21T01:13:17;23.80;94.70
22167;DHT22;11249;52.468;13.776;2022-07-21T01:15:44;23.80;94.60
22167;DHT22;11249;52.468;13.776;2022-07-21T01:18:11;23.80;94.60
22167;DHT22;11249;52.468;13.776;2022-07-21T01:20:51;23.80;94.70
22167;DHT22;11249;52.468;13.776;2022-07-21T01:23:24;23.80;94.70
22167;DHT22;11249;52.468;13.776;2022-07-21T01:25:51;23.70;94.80
22167;DHT22;11249;52.468;13.776;2022-07-21T01:28:18;23.70;94.90
22167;DHT22;11249;52.468;13.776;2022-07-21T01:30:51;23.70;94.80
22167;DHT22;11249;52.468;13.776;2022-07-21T01:33:18;23.60;94.90
22167;DHT22;11249;52.468;13.776;2022-07-21T01:35:51;23.60;94.80
22167;DHT22;11249;52.468;13.776;2022-07-21T01:38:18;23.70;94.70
22167;DHT22;11249;52.468;13.776;2022-07-21T01:41:10;23.60;94.80
22167;DHT22;11249;52.468;13.776;2022-07-21T01:44:09;23.60;94.90
22167;DHT22;11249;52.468;13.776;2022-07-21T01:46:49;23.70;94.90
22167;DHT22;11249;52.468;13.776;2022-07-21T01:49:23;23.70;94.80
22167;DHT22;11249;52.468;13.776;2022-07-21T01:51:50;23.60;94.80
22167;DHT22;11249;52.468;13.776;2022-07-21T01:54:24;23.60;95.00
22167;DHT22;11249;52.468;13.776;2022-07-21T01:56:52;23.60;95.00
22167;DHT22;11249;52.468;13.776;2022-07-21T01:59:19;23.60;95.10
22167;DHT22;11249;52.468;13.776;2022-07-21T02:01:52;23.60;95.20
22167;DHT22;11249;52.468;13.776;2022-07-21T02:04:25;23.50;95.20
22167;DHT22;11249;52.468;13.776;2022-07-21T02:06:52;23.50;95.30
22167;DHT22;11249;52.468;13.776;2022-07-21T02:09:25;23.40;95.50
22167;DHT22;11249;52.468;13.776;2022-07-21T02:11:58;23.40;95.60
22167;DHT22;11249;52.468;13.776;2022-07-21T02:14:25;23.40;95.60
22167;DHT22;11249;52.468;13.776;2022-07-21T02:16:58;23.40;95.50
22167;DHT22;11249;52.468;13.776;2022-07-21T02:19:25;23.30;95.70
22167;DHT22;11249;52.468;13.776;2022-07-21T02:21:58;23.30;95.80
22167;DHT22;11249;52.468;13.776;2022-07-21T02:24:25;23.20;95.80
22167;DHT22;11249;52.468;13.776;2022-07-21T02:26:58;23.20;96.00
22167;DHT22;11249;52.468;13.776;2022-07-21T02:29:31;23.10;96.00
22167;DHT22;11249;52.468;13.776;2022-07-21T02:32:04;23.10;96.10
22167;DHT22;11249;52.468;13.776;2022-07-21T02:34:31;23.10;96.20
22167;DHT22;11249;52.468;13.776;2022-07-21T02:37:04;23.10;96.20
22167;DHT22;11249;52.468;13.776;2022-07-21T02:39:31;23.20;96.30
22167;DHT22;11249;52.468;13.776;2022-07-21T02:42:04;23.20;96.60
22167;DHT22;11249;52.468;13.776;2022-07-21T02:44:38;23.10;96.50
22167;DHT22;11249;52.468;13.776;2022-07-21T02:47:11;23.10;96.50
22167;DHT22;11249;52.468;13.776;2022-07-21T02:49:44;23.00;96.60
22167;DHT22;11249;52.468;13.776;2022-07-21T02:52:11;23.10;96.70
22167;DHT22;11249;52.468;13.776;2022-07-21T02:54:38;23.00;96.70
22167;DHT22;11249;52.468;13.776;2022-07-21T02:57:12;23.00;96.80
22167;DHT22;11249;52.468;13.776;2022-07-21T02:59:45;22.90;97.00
22167;DHT22;11249;52.468;13.776;2022-07-21T03:02:12;22.90;97.20
22167;DHT22;11249;52.468;13.776;2022-07-21T03:04:38;22.90;97.30
22167;DHT22;11249;52.468;13.776;2022-07-21T03:07:19;22.90;97.20
22167;DHT22;11249;52.468;13.776;2022-07-21T03:09:46;22.90;97.10
22167;DHT22;11249;52.468;13.776;2022-07-21T03:12:19;22.90;97.40
22167;DHT22;11249;52.468;13.776;2022-07-21T03:14:46;22.90;97.30
22167;DHT22;11249;52.468;13.776;2022-07-21T03:17:19;23.00;97.20
22167;DHT22;11249;52.468;13.776;2022-07-21T03:19:46;23.00;97.10
22167;DHT22;11249;52.468;13.776;2022-07-21T03:22:12;23.00;97.20
22167;DHT22;11249;52.468;13.776;2022-07-21T03:24:47;23.10;97.10
22167;DHT22;11249;52.468;13.776;2022-07-21T03:27:13;23.10;97.00
22167;DHT22;11249;52.468;13.776;2022-07-21T03:29:46;23.10;97.00
22167;DHT22;11249;52.468;13.776;2022-07-21T03:32:13;23.20;97.00
22167;DHT22;11249;52.468;13.776;2022-07-21T03:34:46;23.30;96.90
22167;DHT22;11249;52.468;13.776;2022-07-21T03:37:13;23.30;96.80
22167;DHT22;11249;52.468;13.776;2022-07-21T03:39:40;23.40;96.80
22167;DHT22;11249;52.468;13.776;2022-07-21T03:42:13;23.40;96.90
22167;DHT22;11249;52.468;13.776;2022-07-21T03:44:46;23.40;97.10
22167;DHT22;11249;52.468;13.776;2022-07-21T03:47:26;23.40;97.00
22167;DHT22;11249;52.468;13.776;2022-07-21T03:49:59;23.40;97.10
22167;DHT22;11249;52.468;13.776;2022-07-21T03:52:26;23.40;97.00
22167;DHT22;11249;52.468;13.776;2022-07-21T03:55:00;23.40;97.20
22167;DHT22;11249;52.468;13.776;2022-07-21T03:57:43;23.50;97.20
22167;DHT22;11249;52.468;13.776;2022-07-21T04:00:21;23.40;97.40
22167;DHT22;11249;52.468;13.776;2022-07-21T04:02:48;23.40;97.60
22167;DHT22;11249;52.468;13.776;2022-07-21T04:05:23;23.30;97.90
22167;DHT22;11249;52.468;13.776;2022-07-21T04:07:51;23.30;98.10
22167;DHT22;11249;52.468;13.776;2022-07-21T04:10:20;23.30;98.20
22167;DHT22;11249;52.468;13.776;2022-07-21T04:12:55;23.30;98.40
22167;DHT22;11249;52.468;13.776;2022-07-21T04:15:22;23.30;98.70
22167;DHT22;11249;52.468;13.776;2022-07-21T04:17:56;23.30;98.80
22167;DHT22;11249;52.468;13.776;2022-07-21T04:20:23;23.30;99.00
22167;DHT22;11249;52.468;13.776;2022-07-21T04:22:51;23.30;99.10
22167;DHT22;11249;52.468;13.776;2022-07-21T04:25:25;23.30;98.90
22167;DHT22;11249;52.468;13.776;2022-07-21T04:27:58;23.30;99.00
22167;DHT22;11249;52.468;13.776;2022-07-21T04:30:32;23.30;99.00
22167;DHT22;11249;52.468;13.776;2022-07-21T04:32:58;23.30;99.20
22167;DHT22;11249;52.468;13.776;2022-07-21T04:35:25;23.40;99.20
22167;DHT22;11249;52.468;13.776;2022-07-21T04:37:58;23.50;99.20
22167;DHT22;11249;52.468;13.776;2022-07-21T04:40:25;23.50;99.40
22167;DHT22;11249;52.468;13.776;2022-07-21T04:42:58;23.60;99.30
22167;DHT22;11249;52.468;13.776;2022-07-21T04:45:25;23.60;99.60
22167;DHT22;11249;52.468;13.776;2022-07-21T04:48:05;23.70;99.50
22167;DHT22;11249;52.468;13.776;2022-07-21T04:50:32;23.80;99.70
22167;DHT22;11249;52.468;13.776;2022-07-21T04:53:05;23.90;99.60
22167;DHT22;11249;52.468;13.776;2022-07-21T04:55:32;23.90;99.90
22167;DHT22;11249;52.468;13.776;2022-07-21T04:58:05;23.90;99.90
22167;DHT22;11249;52.468;13.776;2022-07-21T05:00:32;24.00;99.90
22167;DHT22;11249;52.468;13.776;2022-07-21T05:03:05;24.10;99.80
22167;DHT22;11249;52.468;13.776;2022-07-21T05:05:32;24.10;99.90
22167;DHT22;11249;52.468;13.776;2022-07-21T05:08:05;24.10;99.90
22167;DHT22;11249;52.468;13.776;2022-07-21T05:10:32;24.20;99.90
22167;DHT22;11249;52.468;13.776;2022-07-21T05:12:59;24.20;99.90
22167;DHT22;11249;52.468;13.776;2022-07-21T05:15:32;24.20;99.90
22167;DHT22;11249;52.468;13.776;2022-07-21T05:17:59;24.30;99.90
22167;DHT22;11249;52.468;13.776;2022-07-21T05:20:32;24.20;99.90
22167;DHT22;11249;52.468;13.776;2022-07-21T05:22:59;24.30;99.90
22167;DHT22;11249;52.468;13.776;2022-07-21T05:25:32;24.30;99.90
22167;DHT22;11249;52.468;13.776;2022-07-21T05:28:02;24.30;99.90
22167;DHT22;11249;52.468;13.776;2022-07-21T05:30:29;24.40;99.90
22167;DHT22;11249;52.468;13.776;2022-07-21T05:33:02;24.40;99.90
22167;DHT22;11249;52.468;13.776;2022-07-21T05:35:35;24.40;99.90
22167;DHT22;11249;52.468;13.776;2022-07-21T05:38:02;24.50;99.90
22167;DHT22;11249;52.468;13.776;2022-07-21T05:40:29;24.50;99.80
22167;DHT22;11249;52.468;13.776;2022-07-21T05:43:02;24.50;99.90
22167;DHT22;11249;52.468;13.776;2022-07-21T05:45:42;24.50;99.90
22167;DHT22;11249;52.468;13.776;2022-07-21T05:48:25;24.60;99.80
22167;DHT22;11249;52.468;13.776;2022-07-21T05:50:58;24.60;99.70
22167;DHT22;11249;52.468;13.776;2022-07-21T05:53:31;24.60;99.80
22167;DHT22;11249;52.468;13.776;2022-07-21T05:55:58;24.60;99.90
22167;DHT22;11249;52.468;13.776;2022-07-21T05:58:25;24.70;99.90
22167;DHT22;11249;52.468;13.776;2022-07-21T06:00:58;24.70;99.90
22167;DHT22;11249;52.468;13.776;2022-07-21T06:03:44;24.70;99.80
22167;DHT22;11249;52.468;13.776;2022-07-21T06:06:18;24.70;99.50
22167;DHT22;11249;52.468;13.776;2022-07-21T06:08:47;24.70;99.40
22167;DHT22;11249;52.468;13.776;2022-07-21T06:11:21;24.70;99.80
22167;DHT22;11249;52.468;13.776;2022-07-21T06:13:48;24.70;99.80
22167;DHT22;11249;52.468;13.776;2022-07-21T06:16:15;24.70;99.50
22167;DHT22;11249;52.468;13.776;2022-07-21T06:18:48;24.70;99.70
22167;DHT22;11249;52.468;13.776;2022-07-21T06:21:15;24.60;99.80
22167;DHT22;11249;52.468;13.776;2022-07-21T06:23:49;24.60;99.90
22167;DHT22;11249;52.468;13.776;2022-07-21T06:26:24;24.60;99.90
22167;DHT22;11249;52.468;13.776;2022-07-21T06:28:51;24.70;99.90
22167;DHT22;11249;52.468;13.776;2022-07-21T06:31:24;24.70;99.90
22167;DHT22;11249;52.468;13.776;2022-07-21T06:33:51;24.70;99.90
22167;DHT22;11249;52.468;13.776;2022-07-21T06:36:19;24.70;99.90
22167;DHT22;11249;52.468;13.776;2022-07-21T06:38:52;24.80;99.90
22167;DHT22;11249;52.468;13.776;2022-07-21T06:41:19;24.90;99.90
22167;DHT22;11249;52.468;13.776;2022-07-21T06:43:52;24.90;99.90
22167;DHT22;11249;52.468;13.776;2022-07-21T06:46:33;25.00;99.90
22167;DHT22;11249;52.468;13.776;2022-07-21T06:49:02;25.00;99.90
22167;DHT22;11249;52.468;13.776;2022-07-21T06:51:35;25.00;99.90
22167;DHT22;11249;52.468;13.776;2022-07-21T06:54:02;25.00;99.90
22167;DHT22;11249;52.468;13.776;2022-07-21T06:56:29;25.00;99.90
22167;DHT22;11249;52.468;13.776;2022-07-21T06:59:02;25.00;99.90
22167;DHT22;11249;52.468;13.776;2022-07-21T07:01:29;25.00;99.80
22167;DHT22;11249;52.468;13.776;2022-07-21T07:04:02;25.00;99.90
22167;DHT22;11249;52.468;13.776;2022-07-21T07:06:31;25.00;99.90
22167;DHT22;11249;52.468;13.776;2022-07-21T07:09:04;25.10;99.90
22167;DHT22;11249;52.468;13.776;2022-07-21T07:11:31;25.10;99.90
22167;DHT22;11249;52.468;13.776;2022-07-21T07:14:06;25.10;99.90
22167;DHT22;11249;52.468;13.776;2022-07-21T07:16:44;25.10;99.90
22167;DHT22;11249;52.468;13.776;2022-07-21T07:19:17;25.20;99.90
22167;DHT22;11249;52.468;13.776;2022-07-21T07:21:50;25.20;99.90
22167;DHT22;11249;52.468;13.776;2022-07-21T07:24:23;25.30;99.90
22167;DHT22;11249;52.468;13.776;2022-07-21T07:26:50;25.40;99.90
22167;DHT22;11249;52.468;13.776;2022-07-21T07:29:16;25.40;99.90
22167;DHT22;11249;52.468;13.776;2022-07-21T07:31:50;25.30;99.90
22167;DHT22;11249;52.468;13.776;2022-07-21T07:34:23;25.40;99.90
22167;DHT22;11249;52.468;13.776;2022-07-21T07:36:56;25.40;99.90
22167;DHT22;11249;52.468;13.776;2022-07-21T07:39:23;25.40;99.90
22167;DHT22;11249;52.468;13.776;2022-07-21T07:41:56;25.60;99.90
22167;DHT22;11249;52.468;13.776;2022-07-21T07:44:23;25.70;99.90
22167;DHT22;11249;52.468;13.776;2022-07-21T07:47:10;25.70;99.90
22167;DHT22;11249;52.468;13.776;2022-07-21T07:49:37;25.80;99.90
22167;DHT22;11249;52.468;13.776;2022-07-21T07:52:10;25.90;99.90
22167;DHT22;11249;52.468;13.776;2022-07-21T07:54:37;26.00;99.90
22167;DHT22;11249;52.468;13.776;2022-07-21T07:57:04;26.10;99.90
22167;DHT22;11249;52.468;13.776;2022-07-21T07:59:37;26.10;99.90
22167;DHT22;11249;52.468;13.776;2022-07-21T08:02:10;26.10;99.90
22167;DHT22;11249;52.468;13.776;2022-07-21T08:04:37;26.20;99.90
22167;DHT22;11249;52.468;13.776;2022-07-21T08:07:10;26.20;99.90
22167;DHT22;11249;52.468;13.776;2022-07-21T08:09:43;26.30;99.90
22167;DHT22;11249;52.468;13.776;2022-07-21T08:12:10;26.40;99.70
22167;DHT22;11249;52.468;13.776;2022-07-21T08:14:44;26.40;99.90
22167;DHT22;11249;52.468;13.776;2022-07-21T08:17:11;26.40;99.90
22167;DHT22;11249;52.468;13.776;2022-07-21T08:19:38;26.50;99.90
22167;DHT22;11249;52.468;13.776;2022-07-21T08:22:18;26.70;99.90
22167;DHT22;11249;52.468;13.776;2022-07-21T08:24:45;26.90;99.30
22167;DHT22;11249;52.468;13.776;2022-07-21T08:27:18;27.00;99.40
22167;DHT22;11249;52.468;13.776;2022-07-21T08:29:45;27.10;99.40
22167;DHT22;11249;52.468;13.776;2022-07-21T08:32:12;27.30;98.90
22167;DHT22;11249;52.468;13.776;2022-07-21T08:34:47;27.30;99.00
22167;DHT22;11249;52.468;13.776;2022-07-21T08:37:20;27.40;98.80
22167;DHT22;11249;52.468;13.776;2022-07-21T08:39:47;27.60;99.10
22167;DHT22;11249;52.468;13.776;2022-07-21T08:42:15;27.60;98.30
22167;DHT22;11249;52.468;13.776;2022-07-21T08:44:48;27.60;98.10
22167;DHT22;11249;52.468;13.776;2022-07-21T08:47:29;27.60;98.30
22167;DHT22;11249;52.468;13.776;2022-07-21T08:50:11;27.60;98.10
22167;DHT22;11249;52.468;13.776;2022-07-21T08:52:45;27.60;97.90
22167;DHT22;11249;52.468;13.776;2022-07-21T08:55:12;27.70;98.20
22167;DHT22;11249;52.468;13.776;2022-07-21T08:57:41;27.70;98.10
22167;DHT22;11249;52.468;13.776;2022-07-21T09:00:15;27.80;97.80
22167;DHT22;11249;52.468;13.776;2022-07-21T09:02:48;27.90;97.50
22167;DHT22;11249;52.468;13.776;2022-07-21T09:05:15;27.90;97.80
22167;DHT22;11249;52.468;13.776;2022-07-21T09:07:54;28.00;97.90
22167;DHT22;11249;52.468;13.776;2022-07-21T09:10:31;28.10;98.20
22167;DHT22;11249;52.468;13.776;2022-07-21T09:13:05;28.40;97.60
22167;DHT22;11249;52.468;13.776;2022-07-21T09:15:39;28.60;97.50
22167;DHT22;11249;52.468;13.776;2022-07-21T09:18:09;28.80;97.20
22167;DHT22;11249;52.468;13.776;2022-07-21T09:20:50;28.80;97.00
22167;DHT22;11249;52.468;13.776;2022-07-21T09:23:25;28.70;96.70
22167;DHT22;11249;52.468;13.776;2022-07-21T09:25:58;28.60;97.10
22167;DHT22;11249;52.468;13.776;2022-07-21T09:28:28;28.70;97.00
22167;DHT22;11249;52.468;13.776;2022-07-21T09:31:04;28.60;96.70
22167;DHT22;11249;52.468;13.776;2022-07-21T09:33:41;28.60;97.00
22167;DHT22;11249;52.468;13.776;2022-07-21T09:36:16;28.60;97.40
22167;DHT22;11249;52.468;13.776;2022-07-21T09:38:52;28.60;96.70
22167;DHT22;11249;52.468;13.776;2022-07-21T09:41:22;28.70;97.00
22167;DHT22;11249;52.468;13.776;2022-07-21T09:43:57;28.70;96.80
22167;DHT22;11249;52.468;13.776;2022-07-21T09:46:26;28.60;97.00
22167;DHT22;11249;52.468;13.776;2022-07-21T09:49:13;28.60;96.80
22167;DHT22;11249;52.468;13.776;2022-07-21T09:52:00;28.70;97.00
22167;DHT22;11249;52.468;13.776;2022-07-21T09:54:34;28.70;97.20
22167;DHT22;11249;52.468;13.776;2022-07-21T09:57:01;29.00;97.30
22167;DHT22;11249;52.468;13.776;2022-07-21T09:59:34;29.00;96.90
22167;DHT22;11249;52.468;13.776;2022-07-21T10:02:24;29.20;96.90
22167;DHT22;11249;52.468;13.776;2022-07-21T10:05:03;29.30;95.90
22167;DHT22;11249;52.468;13.776;2022-07-21T10:07:39;29.40;96.40
22167;DHT22;11249;52.468;13.776;2022-07-21T10:10:07;29.60;96.80
22167;DHT22;11249;52.468;13.776;2022-07-21T10:12:40;29.80;95.30
22167;DHT22;11249;52.468;13.776;2022-07-21T10:15:13;29.80;95.90
22167;DHT22;11249;52.468;13.776;2022-07-21T10:17:40;29.90;94.80
22167;DHT22;11249;52.468;13.776;2022-07-21T10:20:30;30.10;94.90
22167;DHT22;11249;52.468;13.776;2022-07-21T10:23:18;30.20;94.40
22167;DHT22;11249;52.468;13.776;2022-07-21T10:25:54;30.60;94.50
22167;DHT22;11249;52.468;13.776;2022-07-21T10:28:28;30.80;94.70
22167;DHT22;11249;52.468;13.776;2022-07-21T10:30:56;30.80;94.20
22167;DHT22;11249;52.468;13.776;2022-07-21T10:41:41;30.70;93.90
22167;DHT22;11249;52.468;13.776;2022-07-21T10:50:01;30.60;94.10
22167;DHT22;11249;52.468;13.776;2022-07-21T10:55:13;30.80;94.10
22167;DHT22;11249;52.468;13.776;2022-07-21T10:57:45;30.60;93.80
22167;DHT22;11249;52.468;13.776;2022-07-21T11:00:29;30.50;94.00
22167;DHT22;11249;52.468;13.776;2022-07-21T11:03:02;30.60;94.40
22167;DHT22;11249;52.468;13.776;2022-07-21T11:05:36;30.70;93.80
22167;DHT22;11249;52.468;13.776;2022-07-21T11:08:11;30.80;93.90
22167;DHT22;11249;52.468;13.776;2022-07-21T11:10:49;30.70;93.80
22167;DHT22;11249;52.468;13.776;2022-07-21T11:13:19;30.80;93.90
22167;DHT22;11249;52.468;13.776;2022-07-21T11:15:58;30.80;93.80
22167;DHT22;11249;52.468;13.776;2022-07-21T11:18:32;31.20;93.60
22167;DHT22;11249;52.468;13.776;2022-07-21T11:21:11;31.10;93.30
22167;DHT22;11249;52.468;13.776;2022-07-21T11:23:48;30.80;93.40
22167;DHT22;11249;52.468;13.776;2022-07-21T11:26:24;30.60;93.30
22167;DHT22;11249;52.468;13.776;2022-07-21T11:29:05;30.50;93.60
22167;DHT22;11249;52.468;13.776;2022-07-21T11:31:46;30.90;93.60
22167;DHT22;11249;52.468;13.776;2022-07-21T11:34:13;31.10;93.00
22167;DHT22;11249;52.468;13.776;2022-07-21T11:36:47;31.00;93.30
22167;DHT22;11249;52.468;13.776;2022-07-21T11:39:34;30.80;93.40
22167;DHT22;11249;52.468;13.776;2022-07-21T11:42:22;30.50;93.90
22167;DHT22;11249;52.468;13.776;2022-07-21T11:45:04;30.60;93.40
22167;DHT22;11249;52.468;13.776;2022-07-21T11:47:48;30.60;93.60
22167;DHT22;11249;52.468;13.776;2022-07-21T11:50:18;30.70;93.50
22167;DHT22;11249;52.468;13.776;2022-07-21T11:52:51;30.80;93.50
22167;DHT22;11249;52.468;13.776;2022-07-21T11:55:32;30.60;93.40
22167;DHT22;11249;52.468;13.776;2022-07-21T11:57:59;30.60;93.60
22167;DHT22;11249;52.468;13.776;2022-07-21T12:00:32;30.50;93.60
22167;DHT22;11249;52.468;13.776;2022-07-21T12:03:07;30.40;93.50
22167;DHT22;11249;52.468;13.776;2022-07-21T12:05:42;30.50;93.90
22167;DHT22;11249;52.468;13.776;2022-07-21T12:08:09;30.80;94.20
22167;DHT22;11249;52.468;13.776;2022-07-21T12:10:35;31.10;93.90
22167;DHT22;11249;52.468;13.776;2022-07-21T12:13:10;31.50;93.20
22167;DHT22;11249;52.468;13.776;2022-07-21T12:15:37;31.40;92.80
22167;DHT22;11249;52.468;13.776;2022-07-21T12:18:21;31.40;93.10
22167;DHT22;11249;52.468;13.776;2022-07-21T12:21:03;31.30;93.20
22167;DHT22;11249;52.468;13.776;2022-07-21T12:23:31;31.10;93.30
22167;DHT22;11249;52.468;13.776;2022-07-21T12:26:04;31.10;93.40
22167;DHT22;11249;52.468;13.776;2022-07-21T12:28:50;30.80;93.30
22167;DHT22;11249;52.468;13.776;2022-07-21T12:31:32;30.60;93.80
22167;DHT22;11249;52.468;13.776;2022-07-21T12:34:14;30.40;93.90
22167;DHT22;11249;52.468;13.776;2022-07-21T12:36:54;30.60;94.40
22167;DHT22;11249;52.468;13.776;2022-07-21T12:40:01;30.80;94.20
22167;DHT22;11249;52.468;13.776;2022-07-21T12:42:35;30.70;93.40
22167;DHT22;11249;52.468;13.776;2022-07-21T12:45:20;30.50;94.00
22167;DHT22;11249;52.468;13.776;2022-07-21T12:48:11;30.50;93.90
22167;DHT22;11249;52.468;13.776;2022-07-21T12:53:54;31.10;93.80
22167;DHT22;11249;52.468;13.776;2022-07-21T12:56:30;30.90;94.30
22167;DHT22;11249;52.468;13.776;2022-07-21T12:59:04;30.90;94.10
22167;DHT22;11249;52.468;13.776;2022-07-21T13:01:32;30.50;94.30
22167;DHT22;11249;52.468;13.776;2022-07-21T13:04:06;30.20;95.00
22167;DHT22;11249;52.468;13.776;2022-07-21T13:06:33;29.80;95.70
22167;DHT22;11249;52.468;13.776;2022-07-21T13:09:00;29.40;96.40
22167;DHT22;11249;52.468;13.776;2022-07-21T13:11:33;29.00;97.20
22167;DHT22;11249;52.468;13.776;2022-07-21T13:14:00;28.70;97.80
22167;DHT22;11249;52.468;13.776;2022-07-21T13:16:35;28.50;98.20
22167;DHT22;11249;52.468;13.776;2022-07-21T13:19:08;28.50;98.60
22167;DHT22;11249;52.468;13.776;2022-07-21T13:21:35;28.40;98.90
22167;DHT22;11249;52.468;13.776;2022-07-21T13:24:02;28.10;99.90
22167;DHT22;11249;52.468;13.776;2022-07-21T13:26:35;28.00;99.90
22167;DHT22;11249;52.468;13.776;2022-07-21T13:29:02;27.90;99.90
22167;DHT22;11249;52.468;13.776;2022-07-21T13:31:32;27.80;99.90
22167;DHT22;11249;52.468;13.776;2022-07-21T13:34:08;27.80;99.90
22167;DHT22;11249;52.468;13.776;2022-07-21T13:36:42;27.80;99.90
22167;DHT22;11249;52.468;13.776;2022-07-21T13:39:15;27.70;99.90
22167;DHT22;11249;52.468;13.776;2022-07-21T13:42:02;27.70;99.90
22167;DHT22;11249;52.468;13.776;2022-07-21T13:44:55;27.60;99.90
22167;DHT22;11249;52.468;13.776;2022-07-21T13:47:28;27.60;99.90
22167;DHT22;11249;52.468;13.776;2022-07-21T13:50:02;27.50;99.90
22167;DHT22;11249;52.468;13.776;2022-07-21T13:52:35;27.40;99.90
22167;DHT22;11249;52.468;13.776;2022-07-21T13:55:03;27.40;99.90
22167;DHT22;11249;52.468;13.776;2022-07-21T13:57:30;27.50;99.90
22167;DHT22;11249;52.468;13.776;2022-07-21T14:00:05;27.50;99.90
22167;DHT22;11249;52.468;13.776;2022-07-21T14:02:40;27.30;99.90
22167;DHT22;11249;52.468;13.776;2022-07-21T14:05:08;27.30;99.90
22167;DHT22;11249;52.468;13.776;2022-07-21T14:07:35;27.20;99.90
22167;DHT22;11249;52.468;13.776;2022-07-21T14:10:10;27.30;99.90
22167;DHT22;11249;52.468;13.776;2022-07-21T14:12:43;27.20;99.90
22167;DHT22;11249;52.468;13.776;2022-07-21T14:15:10;27.10;99.90
22167;DHT22;11249;52.468;13.776;2022-07-21T14:17:43;27.10;99.90
22167;DHT22;11249;52.468;13.776;2022-07-21T14:20:23;27.00;99.90
22167;DHT22;11249;52.468;13.776;2022-07-21T14:22:53;26.80;99.90
22167;DHT22;11249;52.468;13.776;2022-07-21T14:25:26;26.70;99.90
22167;DHT22;11249;52.468;13.776;2022-07-21T14:27:55;26.60;99.90
22167;DHT22;11249;52.468;13.776;2022-07-21T14:30:28;26.50;99.90
22167;DHT22;11249;52.468;13.776;2022-07-21T14:32:55;26.50;99.90
22167;DHT22;11249;52.468;13.776;2022-07-21T14:35:28;26.40;99.90
22167;DHT22;11249;52.468;13.776;2022-07-21T14:37:55;26.30;99.90
22167;DHT22;11249;52.468;13.776;2022-07-21T14:40:29;26.20;99.90
22167;DHT22;11249;52.468;13.776;2022-07-21T14:42:56;26.20;99.90
22167;DHT22;11249;52.468;13.776;2022-07-21T14:45:36;26.10;99.90
22167;DHT22;11249;52.468;13.776;2022-07-21T14:48:09;26.10;99.90
22167;DHT22;11249;52.468;13.776;2022-07-21T14:50:36;26.10;99.90
22167;DHT22;11249;52.468;13.776;2022-07-21T14:53:03;26.00;99.90
22167;DHT22;11249;52.468;13.776;2022-07-21T14:55:38;26.00;99.90
22167;DHT22;11249;52.468;13.776;2022-07-21T14:58:12;25.80;99.90
22167;DHT22;11249;52.468;13.776;2022-07-21T15:00:38;25.60;99.90
22167;DHT22;11249;52.468;13.776;2022-07-21T15:03:05;25.60;99.90
22167;DHT22;11249;52.468;13.776;2022-07-21T15:05:38;25.40;99.90
22167;DHT22;11249;52.468;13.776;2022-07-21T15:08:05;25.40;99.90
22167;DHT22;11249;52.468;13.776;2022-07-21T15:10:39;25.50;99.90
22167;DHT22;11249;52.468;13.776;2022-07-21T15:13:13;25.50;99.90
22167;DHT22;11249;52.468;13.776;2022-07-21T15:15:40;25.40;99.90
22167;DHT22;11249;52.468;13.776;2022-07-21T15:18:07;25.40;99.90
22167;DHT22;11249;52.468;13.776;2022-07-21T15:20:41;25.50;99.90
22167;DHT22;11249;52.468;13.776;2022-07-21T15:23:08;25.50;99.90
22167;DHT22;11249;52.468;13.776;2022-07-21T15:25:35;25.60;99.90
22167;DHT22;11249;52.468;13.776;2022-07-21T15:28:08;25.70;99.90
22167;DHT22;11249;52.468;13.776;2022-07-21T15:30:42;26.00;99.90
22167;DHT22;11249;52.468;13.776;2022-07-21T15:33:09;26.40;99.90
22167;DHT22;11249;52.468;13.776;2022-07-21T15:35:36;27.00;99.90
22167;DHT22;11249;52.468;13.776;2022-07-21T15:38:09;27.70;99.90
22167;DHT22;11249;52.468;13.776;2022-07-21T15:40:39;28.40;99.90
22167;DHT22;11249;52.468;13.776;2022-07-21T15:43:06;28.80;99.90
22167;DHT22;11249;52.468;13.776;2022-07-21T15:45:39;28.80;99.90
22167;DHT22;11249;52.468;13.776;2022-07-21T15:48:14;28.80;99.90
22167;DHT22;11249;52.468;13.776;2022-07-21T15:50:54;28.60;99.90
22167;DHT22;11249;52.468;13.776;2022-07-21T15:53:21;28.50;99.90
22167;DHT22;11249;52.468;13.776;2022-07-21T15:55:54;28.40;99.90
22167;DHT22;11249;52.468;13.776;2022-07-21T15:58:27;28.30;99.90
22167;DHT22;11249;52.468;13.776;2022-07-21T16:00:54;28.40;99.90
22167;DHT22;11249;52.468;13.776;2022-07-21T16:03:27;28.60;99.90
22167;DHT22;11249;52.468;13.776;2022-07-21T16:06:00;28.70;99.90